Latest Weather Observations for Ayr

IDQ60801

Issued at 11:02 pm EST Monday 25 May 2015 (issued every 30 minutes, with the page automatically refreshed every 10 minutes)

About weather observations | Map of weather stations | Latest weather observations for QLD | Other Formats
Station Details ID: 033002 Name: AYR DPI RESEARCH STN Lat: -19.62 Lon: 147.38 Height: 17.0 m
Data from the previous 72 hours. | See also: Recent months at Ayr
Date/Time
EST
Temp
°C
App
Temp
°C
Dew
Point
Rel
Hum
%
Delta-T
°C
Wind Press
QNH
hPa
Press
MSL
hPa
Rain
since 9 am
mm
Dir
 
Spd
km/h
Gust
km/h
Spd
kts
Gust
kts
25/11:00pm 20.0 19.5 15.8 77 2.5 ESE 13 17 7 9 - - 0.0
25/10:30pm 20.1 19.6 15.9 77 2.5 ESE 13 17 7 9 - - 0.0
25/10:00pm 20.3 19.3 15.5 74 2.8 ESE 15 20 8 11 - - 0.0
25/09:30pm 20.6 19.6 15.6 73 3.0 ESE 15 20 8 11 - - 0.0
25/09:00pm 20.8 20.6 15.8 73 3.0 SE 11 17 6 9 - - 0.0
25/08:30pm 20.7 20.3 15.3 71 3.2 ESE 11 15 6 8 - - 0.0
25/08:00pm 21.5 21.1 15.3 68 3.7 ESE 11 17 6 9 - - 0.0
25/07:30pm 22.0 20.9 15.4 66 3.9 E 15 24 8 13 - - 0.0
25/07:00pm 21.7 21.0 14.4 63 4.3 E 11 15 6 8 - - 0.0
25/06:30pm 22.2 22.2 15.1 64 4.2 E 9 15 5 8 - - 0.0
25/06:00pm 22.7 22.0 15.5 64 4.3 E 13 20 7 11 - - 0.0
25/05:30pm 23.5 22.7 15.0 59 5.1 E 13 19 7 10 - - 0.0
25/05:00pm 24.4 22.1 14.2 53 6.0 E 19 26 10 14 - - 0.0
25/04:30pm 25.2 21.9 12.8 46 7.2 E 22 35 12 19 - - 0.0
25/04:00pm 25.7 22.2 13.5 46 7.2 E 24 39 13 21 - - 0.0
25/03:30pm 25.5 21.1 11.7 42 7.9 E 26 39 14 21 - - 0.0
25/03:00pm 26.5 22.9 12.9 43 7.9 E 24 43 13 23 - - 0.0
25/02:30pm 25.2 21.5 14.0 49 6.6 E 26 39 14 21 - - 0.0
25/02:00pm 27.0 23.9 14.4 46 7.5 E 24 35 13 19 - - 0.0
25/01:30pm 26.6 22.9 14.0 46 7.5 E 26 43 14 23 - - 0.0
25/01:00pm 26.8 24.8 15.5 50 6.9 E 20 28 11 15 - - 0.0
25/12:30pm 26.0 23.8 14.8 50 6.7 E 20 32 11 17 - - 0.0
25/12:00pm 25.9 23.6 14.7 50 6.7 ESE 20 43 11 23 - - 0.0
25/11:30am 25.8 23.0 14.3 49 6.8 ESE 22 35 12 19 - - 0.0
25/11:00am 25.8 23.0 14.3 49 6.8 ESE 22 41 12 22 - - 0.0
25/10:30am 25.6 23.6 15.6 54 6.1 ESE 20 30 11 16 - - 0.0
25/10:00am 24.7 22.7 15.6 57 5.5 ESE 20 33 11 18 - - 0.0
25/09:30am 24.1 22.5 15.9 60 5.0 SE 19 28 10 15 - - 0.0
25/09:00am 23.0 21.6 15.6 63 4.4 SE 17 28 9 15 - - 0.0
25/08:30am 22.0 22.1 16.5 71 3.3 SSE 11 17 6 9 - - 0.0
25/08:00am 20.5 20.4 15.9 75 2.7 SSE 11 17 6 9 - - 0.0
25/07:30am 19.3 19.7 16.2 82 1.9 S 9 13 5 7 - - 0.0
25/07:00am 18.0 18.4 15.3 84 1.6 SSE 7 11 4 6 - - 0.0
25/06:30am 18.1 18.2 15.4 84 1.6 SSE 9 13 5 7 - - 0.0
25/06:00am 17.9 18.3 15.2 84 1.6 SSE 7 11 4 6 - - 0.0
25/05:30am 17.7 17.9 14.8 83 1.7 S 7 9 4 5 - - 0.0
25/05:00am 18.3 17.9 15.2 82 1.8 S 11 13 6 7 - - 0.0
25/04:30am 18.8 18.5 15.5 81 1.9 SSE 11 15 6 8 - - 0.0
25/04:00am 19.3 18.8 16.0 81 2.0 SSE 13 19 7 10 - - 0.0
25/03:30am 19.2 19.1 15.9 81 2.0 SSE 11 15 6 8 - - 0.0
25/03:00am 19.6 19.2 16.1 80 2.1 SE 13 19 7 10 - - 0.0
25/02:30am 20.0 19.6 16.2 79 2.3 SE 13 22 7 12 - - 0.0
25/02:00am 20.0 19.6 16.2 79 2.3 SE 13 19 7 10 - - 0.0
25/01:30am 20.0 19.6 16.2 79 2.3 SSE 13 19 7 10 - - 0.0
25/01:00am 20.2 19.9 16.4 79 2.3 SE 13 19 7 10 - - 0.0
25/12:30am 20.4 20.0 16.2 77 2.5 ESE 13 19 7 10 - - 0.0
25/12:00am 19.8 19.8 16.3 80 2.1 SSE 11 19 6 10 - - 0.0
 
Date/Time
EST
Temp
°C
App
Temp
°C
Dew
Point
Rel
Hum
%
Delta-T
°C
Wind Press
QNH
hPa
Press
MSL
hPa
Rain
since 9 am
mm
Dir
 
Spd
km/h
Gust
km/h
Spd
kts
Gust
kts
24/11:30pm 20.1 19.7 16.3 79 2.3 SSE 13 20 7 11 - - 0.0
24/11:00pm 20.7 20.0 16.5 77 2.5 SE 15 24 8 13 - - 0.0
24/10:30pm 21.1 20.1 16.5 75 2.8 SE 17 28 9 15 - - 0.0
24/10:00pm 21.6 20.3 16.8 74 2.9 SE 19 28 10 15 - - 0.0
24/09:30pm 21.4 20.5 16.8 75 2.8 SE 17 24 9 13 - - 0.0
24/09:00pm 21.5 20.8 16.5 73 3.0 SE 15 22 8 12 - - 0.0
24/08:30pm 21.6 21.0 16.6 73 3.0 SE 15 20 8 11 - - 0.0
24/08:00pm 21.4 21.2 16.8 75 2.8 SE 13 20 7 11 - - 0.0
24/07:30pm 21.5 21.3 16.7 74 2.9 SE 13 20 7 11 - - 0.0
24/07:00pm 22.0 20.7 16.7 72 3.2 ESE 19 26 10 14 - - 0.0
24/06:30pm 22.2 20.9 16.9 72 3.2 SE 19 28 10 15 - - 0.0
24/06:00pm 22.6 21.2 17.1 71 3.4 ESE 20 32 11 17 - - 0.0
24/05:30pm 23.1 21.9 17.1 69 3.7 ESE 19 28 10 15 - - 0.0
24/05:00pm 23.3 22.1 17.1 68 3.8 SE 19 26 10 14 - - 0.0
24/04:30pm 23.2 22.0 17.0 68 3.8 SE 19 30 10 16 - - 0.0
24/04:00pm 24.0 21.6 16.5 63 4.6 ESE 24 37 13 20 - - 0.0
24/03:30pm 25.5 23.9 16.4 57 5.6 ESE 20 32 11 17 - - 0.0
24/03:00pm 24.9 23.8 16.3 59 5.3 ESE 17 26 9 14 - - 0.0
24/02:30pm 24.5 23.3 16.2 60 5.1 ESE 17 26 9 14 - - 0.0
24/02:00pm 23.5 22.0 16.8 66 4.1 E 20 30 11 16 - - 0.0
24/01:30pm 24.6 23.1 16.3 60 5.1 ESE 19 26 10 14 - - 0.0
24/01:00pm 24.9 23.0 16.6 60 5.1 ESE 22 32 12 17 - - 0.0
24/12:30pm 25.2 23.4 16.9 60 5.1 ESE 22 33 12 18 - - 0.0
24/12:00pm 25.6 24.0 16.4 56 5.7 E 20 28 11 15 - - 0.0
24/11:30am 24.8 23.4 16.5 60 5.1 ESE 19 28 10 15 - - 0.0
24/11:00am 23.0 22.0 14.6 59 5.0 S 13 15 7 8 - - 0.0
24/10:30am 22.4 20.8 14.0 59 4.9 S 15 20 8 11 - - 0.0
24/10:00am 21.5 20.4 14.4 64 4.2 SSE 13 19 7 10 - - 0.0
24/09:30am 20.5 19.8 14.2 67 3.7 S 11 15 6 8 - - 0.0
24/09:00am 20.3 18.9 13.5 65 3.9 S 13 19 7 10 - - 0.0
24/08:30am 18.7 18.3 14.2 75 2.6 SW 9 13 5 7 - - 0.0
24/08:00am 16.6 16.2 12.9 79 2.1 SSW 7 11 4 6 - - 0.0
24/07:30am 16.5 15.4 12.1 75 2.4 SSW 9 11 5 6 - - 0.0
24/07:00am 14.6 13.7 11.4 81 1.7 SSW 7 9 4 5 - - 0.0
24/06:30am 14.2 13.3 10.8 80 1.8 SSW 6 7 3 4 - - 0.0
24/06:00am 13.8 12.4 11.0 83 1.5 SSW 9 11 5 6 - - 0.0
24/05:30am 13.2 11.3 10.4 83 1.5 SSW 11 13 6 7 - - 0.0
24/05:00am 13.1 11.5 10.3 83 1.5 SSW 9 13 5 7 - - 0.0
24/04:30am 13.2 11.6 10.2 82 1.6 SW 9 13 5 7 - - 0.0
24/04:00am 13.0 11.3 10.0 82 1.5 SW 9 11 5 6 - - 0.0
24/03:30am 13.7 12.2 10.7 82 1.6 SSW 9 11 5 6 - - 0.0
24/03:00am 13.6 12.2 10.9 84 1.4 SSW 9 15 5 8 - - 0.0
24/02:30am 12.9 11.3 10.1 83 1.4 SW 9 11 5 6 - - 0.0
24/02:00am 13.3 11.4 10.5 83 1.5 SW 11 13 6 7 - - 0.0
24/01:30am 13.0 11.4 10.2 83 1.4 SSW 9 9 5 5 - - 0.0
24/01:00am 13.2 12.3 10.6 84 1.4 S 6 9 3 5 - - 0.0
24/12:30am 13.4 12.4 10.4 82 1.6 S 6 7 3 4 - - 0.0
24/12:00am 14.0 12.9 10.6 80 1.8 S 7 9 4 5 - - 0.0
 
Date/Time
EST
Temp
°C
App
Temp
°C
Dew
Point
Rel
Hum
%
Delta-T
°C
Wind Press
QNH
hPa
Press
MSL
hPa
Rain
since 9 am
mm
Dir
 
Spd
km/h
Gust
km/h
Spd
kts
Gust
kts
23/11:30pm 14.6 13.6 11.0 79 1.9 S 7 11 4 6 - - 0.0
23/11:00pm 16.1 15.1 11.1 72 2.7 SSE 7 13 4 7 - - 0.0
23/10:30pm 17.2 15.3 11.7 70 3.0 SE 13 20 7 11 - - 0.0
23/10:00pm 16.7 15.3 11.0 69 3.1 SE 9 11 5 6 - - 0.0
23/09:30pm 18.0 16.4 11.6 66 3.5 ESE 11 17 6 9 - - 0.0
23/09:00pm 18.5 16.2 11.6 64 3.8 ESE 15 20 8 11 - - 0.0
23/08:30pm 18.5 16.5 11.6 64 3.8 ESE 13 17 7 9 - - 0.0
23/08:00pm 15.2 14.4 11.6 79 1.9 E 7 9 4 5 - - 0.0
23/07:30pm 15.6 15.8 10.6 72 2.6 CALM 0 0 0 0 - - 0.0
23/07:00pm 16.1 15.2 10.8 71 2.8 ENE 6 7 3 4 - - 0.0
23/06:30pm 17.4 17.0 11.2 67 3.4 NE 4 7 2 4 - - 0.0
23/06:00pm 18.6 17.8 10.9 61 4.2 ENE 6 9 3 5 - - 0.0
23/05:30pm 20.3 18.1 10.7 54 5.2 E 13 20 7 11 - - 0.0
23/05:00pm 21.5 18.9 10.6 50 6.0 ENE 15 22 8 12 - - 0.0
23/04:30pm 22.7 20.1 9.5 43 7.1 ENE 13 20 7 11 - - 0.0
23/04:00pm 23.2 19.9 8.1 38 8.0 ENE 15 22 8 12 - - 0.0
23/03:30pm 24.2 20.1 4.6 28 9.8 ENE 15 22 8 12 - - 0.0
23/03:00pm 24.5 20.7 3.8 26 10.2 ENE 13 20 7 11 - - 0.0
23/02:30pm 24.7 21.3 3.9 26 10.3 E 11 20 6 11 - - 0.0
23/02:00pm 24.3 20.7 3.0 25 10.3 E 11 22 6 12 - - 0.0
23/01:30pm 24.4 20.3 2.5 24 10.5 SSE 13 20 7 11 - - 0.0
23/01:00pm 23.8 20.1 2.6 25 10.1 S 11 19 6 10 - - 0.0
23/12:30pm 23.6 18.6 3.5 27 9.8 S 19 24 10 13 - - 0.0
23/12:00pm 23.1 19.5 3.1 27 9.6 SE 11 19 6 10 - - 0.0
23/11:30am 22.2 18.7 3.3 29 9.1 S 11 17 6 9 - - 0.0
23/11:00am 21.5 17.6 3.2 30 8.7 SSE 13 19 7 10 - - 0.0
23/10:30am 20.7 16.5 3.9 33 8.1 S 15 20 8 11 - - 0.0
23/10:00am 19.8 15.6 3.9 35 7.6 S 15 20 8 11 - - 0.0
23/09:30am 18.8 13.8 3.8 37 7.1 S 19 26 10 14 - - 0.0
23/09:00am 18.1 13.0 4.3 40 6.5 S 20 30 11 16 - - 0.0
23/08:30am 16.8 12.7 4.2 43 5.9 S 15 22 8 12 - - 0.0
23/08:00am 15.4 12.1 4.8 49 5.0 SSW 11 17 6 9 - - 0.0
23/07:30am 12.7 9.9 5.1 60 3.5 SSW 9 13 5 7 - - 0.0
23/07:00am 11.5 8.2 4.5 62 3.2 SSW 11 15 6 8 - - 0.0
23/06:30am 12.1 8.7 4.1 58 3.6 SSW 11 15 6 8 - - 0.0
23/06:00am 12.5 8.7 4.0 56 3.8 SSW 13 15 7 8 - - 0.0
23/05:30am 12.5 9.2 4.7 59 3.6 SSW 11 13 6 7 - - 0.0
23/05:00am 13.3 10.0 4.7 56 4.0 SSW 11 15 6 8 - - 0.0
23/04:30am 13.1 10.0 5.5 60 3.6 SSW 11 15 6 8 - - 0.0
23/04:00am 13.0 10.9 6.6 65 3.1 S 7 9 4 5 - - 0.0
23/03:30am 12.9 10.9 6.9 67 2.9 S 7 11 4 6 - - 0.0
23/03:00am 13.4 12.4 7.2 66 3.0 SW 2 6 1 3 - - 0.0
23/02:30am 14.1 12.2 7.4 64 3.3 SSW 7 9 4 5 - - 0.0
23/02:00am 13.3 10.6 5.7 60 3.6 SSW 9 9 5 5 - - 0.0
23/01:30am 15.4 13.0 1.9 40 6.0 SE 4 7 2 4 - - 0.0
23/01:00am 17.5 13.8 0.2 31 7.5 S 9 15 5 8 - - 0.0
23/12:30am 18.7 13.9 0.3 29 8.1 S 15 19 8 10 - - 0.0
23/12:00am 19.1 14.4 0.7 29 8.2 S 15 19 8 10 - - 0.0
 
Date/Time
EST
Temp
°C
App
Temp
°C
Dew
Point
Rel
Hum
%
Delta-T
°C
Wind Press
QNH
hPa
Press
MSL
hPa
Rain
since 9 am
mm
Dir
 
Spd
km/h
Gust
km/h
Spd
kts
Gust
kts
22/11:30pm 18.9 14.7 1.4 31 7.9 S 13 20 7 11 - - 0.0

Other Formats:

Comma delimited format used in spreadsheet applications
http://www.bom.gov.au/fwo/IDQ60801/IDQ60801.95295.axf

JavaScript Object Notation format (JSON) in row-major order
http://www.bom.gov.au/fwo/IDQ60801/IDQ60801.95295.json